createdAt,value
2017-11-09T00:02:02.617Z,92.40
2017-11-09T00:04:37.173Z,92.60
2017-11-09T00:07:05.251Z,92.40
2017-11-09T00:09:33.315Z,92.10
2017-11-09T00:12:01.368Z,92.00
2017-11-09T00:14:30.607Z,92.00
2017-11-09T00:16:58.661Z,92.30
2017-11-09T00:19:26.714Z,92.40
2017-11-09T00:21:55.536Z,92.40
2017-11-09T00:24:25.128Z,92.30
2017-11-09T00:26:53.179Z,92.30
2017-11-09T00:29:22.003Z,92.40
2017-11-09T00:31:50.078Z,92.10
2017-11-09T00:34:18.130Z,91.70
2017-11-09T00:36:46.186Z,92.00
2017-11-09T00:39:15.010Z,92.00
2017-11-09T00:41:43.079Z,91.90
2017-11-09T00:44:11.178Z,92.10
2017-11-09T00:46:40.382Z,91.80
2017-11-09T00:49:08.441Z,92.00
2017-11-09T00:51:36.535Z,91.90
2017-11-09T00:54:05.727Z,91.70
2017-11-09T00:56:33.788Z,91.90
2017-11-09T00:59:02.247Z,91.80
2017-11-09T01:01:30.318Z,91.60
2017-11-09T01:03:58.375Z,91.50
2017-11-09T01:06:26.446Z,91.80
2017-11-09T01:08:55.287Z,92.00
2017-11-09T01:11:23.343Z,91.70
2017-11-09T01:13:51.404Z,91.80
2017-11-09T01:16:19.482Z,92.00
2017-11-09T01:18:47.539Z,91.70
2017-11-09T01:21:15.590Z,91.90
2017-11-09T01:23:44.062Z,92.10
2017-11-09T01:26:12.879Z,91.90
2017-11-09T01:28:40.946Z,91.20
2017-11-09T01:33:38.334Z,91.50
2017-11-09T01:36:06.803Z,92.00
2017-11-09T01:38:34.875Z,91.30
2017-11-09T01:41:04.351Z,91.60
2017-11-09T01:46:01.766Z,91.30
2017-11-09T01:48:29.823Z,91.10
2017-11-09T01:50:58.662Z,90.90
2017-11-09T01:53:27.114Z,91.20
2017-11-09T01:55:55.167Z,91.00
2017-11-09T01:58:23.260Z,91.40
2017-11-09T02:00:51.716Z,91.60
2017-11-09T02:05:49.882Z,91.30
2017-11-09T02:08:18.711Z,91.60
2017-11-09T02:10:47.175Z,91.30
2017-11-09T02:13:15.227Z,91.10
2017-11-09T02:15:44.820Z,91.30
2017-11-09T02:18:13.635Z,91.10
2017-11-09T02:20:41.691Z,91.30
2017-11-09T02:23:10.522Z,91.60
2017-11-09T02:25:38.579Z,91.30
2017-11-09T02:28:06.651Z,91.10
2017-11-09T02:30:34.711Z,91.40
2017-11-09T02:33:02.773Z,91.60
2017-11-09T02:35:31.243Z,91.40
2017-11-09T02:38:00.438Z,90.90
2017-11-09T02:40:29.287Z,91.00
2017-11-09T02:42:57.346Z,91.10
2017-11-09T02:45:25.421Z,91.10
2017-11-09T02:47:53.483Z,90.80
2017-11-09T02:52:50.890Z,91.70
2017-11-09T02:55:19.766Z,91.00
2017-11-09T02:57:47.789Z,90.30
2017-11-09T03:00:17.355Z,90.70
2017-11-09T03:02:46.195Z,90.90
2017-11-09T03:05:15.019Z,90.40
2017-11-09T03:07:44.227Z,90.10
2017-11-09T03:10:12.287Z,90.10
2017-11-09T03:12:40.363Z,90.30
2017-11-09T03:15:08.433Z,90.40
2017-11-09T03:17:36.484Z,90.70
2017-11-09T03:20:04.559Z,90.70
2017-11-09T03:22:32.632Z,90.50
2017-11-09T03:25:00.708Z,90.60
2017-11-09T03:27:29.928Z,90.60
2017-11-09T03:29:58.004Z,90.50
2017-11-09T03:32:26.071Z,90.50
2017-11-09T03:34:54.909Z,90.70
2017-11-09T03:37:23.746Z,90.80
2017-11-09T03:39:51.819Z,90.50
2017-11-09T03:42:19.992Z,90.60
2017-11-09T03:44:48.775Z,91.20
2017-11-09T03:47:17.620Z,90.70
2017-11-09T03:49:46.083Z,90.40
2017-11-09T03:52:14.155Z,90.70
2017-11-09T03:54:42.239Z,90.40
2017-11-09T03:57:10.698Z,90.50
2017-11-09T03:59:38.763Z,90.90
2017-11-09T04:02:06.859Z,91.10
2017-11-09T04:07:05.008Z,91.00
2017-11-09T04:09:33.070Z,90.60
2017-11-09T04:12:01.147Z,90.10
2017-11-09T04:14:29.618Z,89.70
2017-11-09T04:16:57.695Z,89.90
2017-11-09T04:19:25.750Z,90.00
2017-11-09T04:21:53.811Z,90.10
2017-11-09T04:24:21.882Z,90.30
2017-11-09T04:26:49.939Z,91.00
2017-11-09T04:29:18.780Z,90.70
2017-11-09T04:31:46.845Z,90.10
2017-11-09T04:34:16.047Z,90.80
2017-11-09T04:36:44.504Z,90.00
2017-11-09T04:39:12.563Z,90.00
2017-11-09T04:41:41.398Z,90.30
2017-11-09T04:44:09.494Z,89.30
2017-11-09T04:46:37.555Z,89.50
2017-11-09T04:49:05.639Z,88.90
2017-11-09T04:51:33.703Z,89.50
2017-11-09T04:54:01.758Z,89.70
2017-11-09T04:56:30.225Z,90.20
2017-11-09T04:58:58.278Z,90.90
2017-11-09T05:01:26.359Z,89.10
2017-11-09T05:06:25.272Z,90.10
2017-11-09T05:08:53.335Z,90.00
2017-11-09T05:11:21.395Z,89.30
2017-11-09T05:13:50.239Z,90.00
2017-11-09T05:16:18.299Z,90.00
2017-11-09T05:18:47.506Z,90.50
2017-11-09T05:21:15.567Z,90.20
2017-11-09T05:23:43.652Z,90.80
2017-11-09T05:26:11.716Z,91.00
2017-11-09T05:28:40.535Z,89.40
2017-11-09T05:31:08.607Z,90.00
2017-11-09T05:33:37.804Z,89.50
2017-11-09T05:36:05.928Z,89.80
2017-11-09T05:38:33.979Z,89.60
2017-11-09T05:41:02.059Z,90.50
2017-11-09T05:43:30.123Z,90.10
2017-11-09T05:45:58.180Z,90.70
2017-11-09T05:48:27.017Z,90.90
2017-11-09T05:50:55.071Z,90.70
2017-11-09T05:53:23.924Z,90.90
2017-11-09T05:55:52.743Z,90.50
2017-11-09T05:58:20.810Z,91.50
2017-11-09T06:00:49.323Z,90.90
2017-11-09T06:03:17.356Z,90.70
2017-11-09T06:05:46.939Z,91.00
2017-11-09T06:10:44.351Z,91.00
2017-11-09T06:15:41.771Z,87.70
2017-11-09T06:18:09.843Z,88.40
2017-11-09T06:20:37.903Z,90.00
2017-11-09T06:25:36.842Z,89.70
2017-11-09T06:28:05.688Z,90.50
2017-11-09T06:30:33.747Z,90.00
2017-11-09T06:33:01.806Z,90.00
2017-11-09T06:35:30.271Z,90.20
2017-11-09T06:37:58.362Z,90.00
2017-11-09T06:40:26.419Z,90.00
2017-11-09T06:42:54.483Z,89.30
2017-11-09T06:45:22.551Z,89.70
2017-11-09T06:50:22.028Z,90.40
2017-11-09T06:57:48.787Z,90.10
2017-11-09T07:00:16.863Z,90.10
2017-11-09T07:02:44.927Z,90.20
2017-11-09T07:05:12.983Z,90.20
2017-11-09T07:07:41.077Z,90.00
2017-11-09T07:10:10.267Z,88.70
2017-11-09T07:12:38.328Z,88.40
2017-11-09T07:15:06.403Z,89.10
2017-11-09T07:17:34.470Z,90.00
2017-11-09T07:20:02.526Z,90.50
2017-11-09T07:22:30.616Z,90.60
2017-11-09T07:24:58.675Z,90.80
2017-11-09T07:27:26.731Z,90.90
2017-11-09T07:29:55.581Z,91.30
2017-11-09T07:32:23.635Z,90.80
2017-11-09T07:34:51.699Z,90.50
2017-11-09T07:37:19.775Z,90.60
2017-11-09T07:39:47.847Z,90.10
2017-11-09T07:42:15.914Z,90.00
2017-11-09T07:44:43.978Z,89.20
2017-11-09T07:47:12.063Z,87.90
2017-11-09T07:49:40.519Z,86.20
2017-11-09T07:52:08.583Z,86.70
2017-11-09T07:54:37.426Z,87.70
2017-11-09T07:57:05.506Z,87.60
2017-11-09T07:59:33.956Z,87.80
2017-11-09T08:02:02.015Z,87.60
2017-11-09T08:04:30.098Z,86.80
2017-11-09T08:06:58.558Z,85.30
2017-11-09T08:09:26.616Z,84.50
2017-11-09T08:14:24.008Z,83.20
2017-11-09T08:16:52.095Z,80.60
2017-11-09T08:19:20.166Z,79.30
2017-11-09T08:21:48.611Z,78.50
2017-11-09T08:24:20.607Z,79.00
2017-11-09T08:26:49.974Z,78.30
2017-11-09T08:29:21.542Z,77.70
2017-11-09T08:31:50.639Z,77.60
2017-11-09T08:34:18.713Z,80.30
2017-11-09T08:36:47.553Z,78.20
2017-11-09T08:39:15.612Z,78.90
2017-11-09T08:41:44.443Z,80.70
2017-11-09T08:44:13.292Z,83.60
2017-11-09T08:46:41.763Z,84.70
2017-11-09T08:49:09.819Z,85.60
2017-11-09T08:54:07.979Z,84.30
2017-11-09T08:56:36.837Z,85.00
2017-11-09T08:59:04.895Z,81.60
2017-11-09T09:01:33.727Z,79.70
2017-11-09T09:04:02.572Z,78.10
2017-11-09T09:06:30.651Z,77.80
2017-11-09T09:08:58.826Z,78.20
2017-11-09T09:11:27.992Z,81.50
2017-11-09T09:13:56.067Z,82.80
2017-11-09T09:16:24.136Z,83.10
2017-11-09T09:18:52.215Z,81.20
2017-11-09T09:21:20.282Z,80.40
2017-11-09T09:23:52.775Z,80.60
2017-11-09T09:29:36.301Z,82.50
2017-11-09T09:32:05.115Z,84.40
2017-11-09T09:34:38.871Z,85.20
2017-11-09T09:37:09.742Z,85.50
2017-11-09T09:39:42.583Z,84.80
2017-11-09T09:42:10.663Z,83.80
2017-11-09T09:44:38.720Z,83.00
2017-11-09T09:47:06.797Z,83.40
2017-11-09T09:49:34.871Z,84.10
2017-11-09T09:52:02.955Z,85.30
2017-11-09T09:54:31.783Z,85.50
2017-11-09T09:57:00.619Z,85.10
2017-11-09T09:59:28.692Z,84.60
2017-11-09T10:01:56.750Z,85.20
2017-11-09T10:04:24.842Z,84.10
2017-11-09T10:06:52.908Z,82.50
2017-11-09T10:09:20.989Z,81.50
2017-11-09T10:11:50.176Z,80.00
2017-11-09T10:14:18.254Z,79.30
2017-11-09T10:16:46.314Z,77.90
2017-11-09T10:19:14.374Z,79.00
2017-11-09T10:21:42.464Z,79.60
2017-11-09T10:24:10.527Z,78.90
2017-11-09T10:26:38.598Z,79.40
2017-11-09T10:29:06.679Z,79.40
2017-11-09T10:34:04.090Z,78.20
2017-11-09T10:36:32.146Z,78.70
2017-11-09T10:39:00.987Z,78.60
2017-11-09T10:41:29.060Z,76.70
2017-11-09T10:43:57.550Z,77.80
2017-11-09T10:46:25.603Z,77.30
2017-11-09T10:48:54.463Z,77.10
2017-11-09T10:51:22.528Z,77.50
2017-11-09T10:53:50.989Z,77.50
2017-11-09T10:56:19.072Z,78.00
2017-11-09T10:58:47.894Z,78.70
2017-11-09T11:01:15.956Z,79.50
2017-11-09T11:03:44.036Z,80.50
2017-11-09T11:06:12.096Z,80.50
2017-11-09T11:08:41.664Z,82.30
2017-11-09T11:11:10.944Z,81.00
2017-11-09T11:13:39.388Z,80.10
2017-11-09T11:16:07.452Z,80.70
2017-11-09T11:18:36.271Z,83.50
2017-11-09T11:21:04.336Z,82.80
2017-11-09T11:23:32.398Z,81.30
2017-11-09T11:26:00.475Z,81.50
2017-11-09T11:28:28.531Z,82.20
2017-11-09T11:30:56.618Z,80.70
2017-11-09T11:33:25.072Z,80.50
2017-11-09T11:35:53.913Z,81.10
2017-11-09T11:38:21.979Z,81.10
2017-11-09T11:40:50.035Z,79.80
2017-11-09T11:43:18.110Z,81.10
2017-11-09T11:45:46.168Z,80.90
2017-11-09T11:48:14.243Z,80.10
2017-11-09T11:50:42.303Z,81.70
2017-11-09T11:53:10.380Z,82.00
2017-11-09T11:55:38.448Z,82.00
2017-11-09T11:58:08.008Z,80.30
2017-11-09T12:00:36.086Z,78.70
2017-11-09T12:03:04.148Z,78.00
2017-11-09T12:05:32.226Z,78.10
2017-11-09T12:08:00.292Z,79.60
2017-11-09T12:10:29.115Z,79.20
2017-11-09T12:12:57.977Z,75.20
2017-11-09T12:15:26.034Z,73.70
2017-11-09T12:17:54.880Z,73.00
2017-11-09T12:20:22.959Z,72.30
2017-11-09T12:22:51.032Z,69.10
2017-11-09T12:25:19.115Z,69.90
2017-11-09T12:27:47.190Z,67.40
2017-11-09T12:30:16.395Z,68.50
2017-11-09T12:32:44.488Z,66.60
2017-11-09T12:35:12.566Z,69.20
2017-11-09T12:37:40.640Z,68.40
2017-11-09T12:40:08.710Z,65.60
2017-11-09T12:42:36.781Z,67.20
2017-11-09T12:45:04.855Z,62.10
2017-11-09T12:47:32.939Z,59.40
2017-11-09T12:50:01.004Z,60.00
2017-11-09T12:52:29.071Z,61.80
2017-11-09T12:54:58.676Z,62.50
2017-11-09T12:57:26.759Z,60.30
2017-11-09T12:59:55.222Z,58.60
2017-11-09T13:02:23.317Z,56.60
2017-11-09T13:04:51.387Z,57.00
2017-11-09T13:07:20.583Z,57.20
2017-11-09T13:09:48.663Z,56.50
2017-11-09T13:12:16.727Z,55.80
2017-11-09T13:14:46.416Z,55.40
2017-11-09T13:17:15.200Z,56.10
2017-11-09T13:19:43.273Z,56.60
2017-11-09T13:22:11.353Z,57.00
2017-11-09T13:24:39.416Z,57.70
2017-11-09T13:27:07.513Z,55.80
2017-11-09T13:29:37.082Z,56.00
2017-11-09T13:32:05.155Z,56.20
2017-11-09T13:34:33.236Z,57.60
2017-11-09T13:37:02.075Z,56.80
2017-11-09T13:39:30.931Z,58.10
2017-11-09T13:41:58.997Z,58.10
2017-11-09T13:44:27.064Z,58.20
2017-11-09T13:46:55.135Z,55.80
2017-11-09T13:49:23.205Z,57.50
2017-11-09T13:51:51.286Z,57.50
2017-11-09T13:54:19.354Z,59.40
2017-11-09T13:56:47.447Z,57.40
2017-11-09T13:59:15.517Z,58.60
2017-11-09T14:01:43.586Z,60.70
2017-11-09T14:04:11.689Z,57.10
2017-11-09T14:06:40.518Z,58.50
2017-11-09T14:09:08.579Z,57.50
2017-11-09T14:11:36.679Z,58.50
2017-11-09T14:16:35.222Z,56.40
2017-11-09T14:19:04.071Z,58.00
2017-11-09T14:21:32.160Z,58.20
2017-11-09T14:24:01.024Z,60.10
2017-11-09T14:26:29.082Z,59.30
2017-11-09T14:28:57.159Z,60.00
2017-11-09T14:31:25.223Z,60.70
2017-11-09T14:33:53.291Z,59.80
2017-11-09T14:36:21.348Z,58.90
2017-11-09T14:38:51.211Z,60.00
2017-11-09T14:41:19.285Z,61.10
2017-11-09T14:43:48.963Z,65.40
2017-11-09T14:46:17.042Z,72.60
2017-11-09T14:48:45.121Z,71.00
2017-11-09T14:51:13.204Z,69.20
2017-11-09T14:53:41.267Z,62.70
2017-11-09T14:56:09.340Z,60.80
2017-11-09T14:58:37.407Z,63.50
2017-11-09T15:01:05.462Z,63.00
2017-11-09T15:03:34.305Z,62.60
2017-11-09T15:06:02.376Z,64.60
2017-11-09T15:08:30.456Z,63.30
2017-11-09T15:10:58.524Z,64.70
2017-11-09T15:13:27.355Z,62.50
2017-11-09T15:18:24.755Z,62.30
2017-11-09T15:20:53.239Z,61.50
2017-11-09T15:23:21.300Z,63.00
2017-11-09T15:25:49.359Z,63.70
2017-11-09T15:28:17.436Z,63.40
2017-11-09T15:30:45.505Z,63.40
2017-11-09T15:33:13.598Z,64.20
2017-11-09T15:35:47.739Z,63.10
2017-11-09T15:38:16.592Z,63.40
2017-11-09T15:40:45.067Z,64.80
2017-11-09T15:43:13.143Z,66.10
2017-11-09T15:45:41.199Z,65.80
2017-11-09T15:48:09.271Z,67.20
2017-11-09T15:50:37.358Z,66.90
2017-11-09T15:53:05.410Z,69.80
2017-11-09T15:55:33.876Z,68.70
2017-11-09T15:58:02.705Z,69.20
2017-11-09T16:00:30.779Z,68.80
2017-11-09T16:02:58.838Z,72.90
2017-11-09T16:05:26.918Z,81.50
2017-11-09T16:07:55.750Z,84.10
2017-11-09T16:10:25.330Z,80.20
2017-11-09T16:12:53.394Z,83.30
2017-11-09T16:15:21.466Z,82.10
2017-11-09T16:17:49.555Z,81.50
2017-11-09T16:20:17.628Z,74.90
2017-11-09T16:22:45.688Z,77.00
2017-11-09T16:25:13.765Z,73.90
2017-11-09T16:27:41.822Z,73.60
2017-11-09T16:30:09.917Z,74.80
2017-11-09T16:32:38.735Z,75.10
2017-11-09T16:35:07.567Z,73.40
2017-11-09T16:37:35.649Z,71.10
2017-11-09T16:40:04.478Z,72.00
2017-11-09T16:42:36.484Z,74.80
2017-11-09T16:45:04.540Z,73.70
2017-11-09T16:47:32.617Z,74.80
2017-11-09T16:50:00.688Z,72.60
2017-11-09T16:52:28.756Z,72.60
2017-11-09T16:54:56.850Z,71.90
2017-11-09T16:57:24.907Z,69.70
2017-11-09T16:59:52.975Z,72.60
2017-11-09T17:02:21.051Z,74.60
2017-11-09T17:04:49.145Z,74.70
2017-11-09T17:07:31.920Z,73.30
2017-11-09T17:10:00.759Z,74.10
2017-11-09T17:12:28.835Z,72.30
2017-11-09T17:15:00.860Z,72.30
2017-11-09T17:19:58.253Z,68.40
2017-11-09T17:22:26.326Z,67.60
2017-11-09T17:27:23.719Z,68.10
2017-11-09T17:29:51.776Z,68.70
2017-11-09T17:32:20.611Z,69.10
2017-11-09T17:34:49.447Z,69.80
2017-11-09T17:37:19.278Z,71.40
2017-11-09T17:39:47.358Z,71.00
2017-11-09T17:42:18.867Z,73.30
2017-11-09T17:44:46.940Z,75.10
2017-11-09T17:47:16.150Z,77.80
2017-11-09T17:49:44.228Z,77.80
2017-11-09T17:52:12.319Z,73.90
2017-11-09T17:57:09.706Z,76.50
2017-11-09T18:02:28.948Z,78.60
2017-11-09T18:04:57.063Z,79.20
2017-11-09T18:07:25.128Z,79.80
2017-11-09T18:09:53.207Z,80.50
2017-11-09T18:12:21.266Z,80.40
2017-11-09T18:14:49.330Z,80.60
2017-11-09T18:17:17.407Z,79.80
2017-11-09T18:19:45.463Z,80.10
2017-11-09T18:22:13.538Z,82.00
2017-11-09T18:24:41.996Z,82.70
2017-11-09T18:27:10.836Z,82.10
2017-11-09T18:29:38.899Z,83.00
2017-11-09T18:32:06.964Z,83.40
2017-11-09T18:34:35.036Z,83.80
2017-11-09T18:37:03.105Z,83.00
2017-11-09T18:39:31.175Z,82.90
2017-11-09T18:41:59.240Z,83.60
2017-11-09T18:44:27.312Z,85.10
2017-11-09T18:46:55.783Z,85.50
2017-11-09T18:49:24.636Z,85.50
2017-11-09T18:51:53.101Z,85.30
2017-11-09T18:54:21.188Z,86.00
2017-11-09T18:56:49.243Z,85.60
2017-11-09T18:59:18.199Z,85.70
2017-11-09T19:01:47.422Z,86.30
2017-11-09T19:04:16.623Z,86.40
2017-11-09T19:06:44.679Z,86.10
2017-11-09T19:09:12.752Z,86.00
2017-11-09T19:11:40.810Z,85.70
2017-11-09T19:14:08.879Z,86.20
2017-11-09T19:16:36.934Z,86.30
2017-11-09T19:19:05.778Z,85.30
2017-11-09T19:21:34.252Z,83.60
2017-11-09T19:24:02.341Z,84.00
2017-11-09T19:26:31.164Z,84.60
2017-11-09T19:28:59.219Z,85.40
2017-11-09T19:31:28.063Z,85.20
2017-11-09T19:33:56.118Z,84.70
2017-11-09T19:36:24.178Z,85.50
2017-11-09T19:38:52.254Z,84.90
2017-11-09T19:41:20.311Z,84.40
2017-11-09T19:43:48.400Z,85.00
2017-11-09T19:46:16.450Z,84.70
2017-11-09T19:48:44.514Z,85.10
2017-11-09T19:51:12.578Z,85.50
2017-11-09T19:53:41.403Z,86.10
2017-11-09T19:56:10.234Z,85.70
2017-11-09T19:58:38.294Z,85.20
2017-11-09T20:01:06.367Z,84.90
2017-11-09T20:03:34.419Z,85.50
2017-11-09T20:06:02.507Z,84.50
2017-11-09T20:08:30.560Z,83.80
2017-11-09T20:10:58.614Z,82.60
2017-11-09T20:13:27.455Z,80.80
2017-11-09T20:15:57.035Z,83.00
2017-11-09T20:18:25.132Z,80.60
2017-11-09T20:20:53.987Z,79.60
2017-11-09T20:23:22.061Z,80.30
2017-11-09T20:25:50.124Z,80.80
2017-11-09T20:28:18.199Z,79.20
2017-11-09T20:30:46.285Z,78.00
2017-11-09T20:33:15.498Z,78.70
2017-11-09T20:35:43.571Z,78.10
2017-11-09T20:38:11.639Z,77.10
2017-11-09T20:40:39.724Z,76.70
2017-11-09T20:43:07.777Z,77.30
2017-11-09T20:45:35.850Z,77.90
2017-11-09T20:48:03.915Z,76.80
2017-11-09T20:50:31.994Z,75.90
2017-11-09T20:53:02.027Z,78.10
2017-11-09T20:58:00.220Z,74.10
2017-11-09T21:00:28.295Z,75.00
2017-11-09T21:02:56.371Z,74.60
2017-11-09T21:05:24.827Z,73.80
2017-11-09T21:07:52.898Z,72.60
2017-11-09T21:10:21.350Z,73.50
2017-11-09T21:12:49.825Z,72.40
2017-11-09T21:15:18.280Z,74.20
2017-11-09T21:20:15.667Z,71.40
2017-11-09T21:22:43.742Z,71.00
2017-11-09T21:25:11.811Z,72.00
2017-11-09T21:27:39.875Z,73.30
2017-11-09T21:32:37.284Z,73.70
2017-11-09T21:40:04.774Z,73.70
2017-11-09T21:42:33.598Z,73.20
2017-11-09T21:45:01.680Z,73.10
2017-11-09T21:47:29.731Z,73.10
2017-11-09T21:49:57.803Z,74.90
2017-11-09T21:52:26.262Z,74.70
2017-11-09T21:54:55.105Z,76.00
2017-11-09T21:57:23.934Z,77.30
2017-11-09T21:59:52.767Z,76.90
2017-11-09T22:02:22.363Z,77.80
2017-11-09T22:04:50.423Z,78.40
2017-11-09T22:07:18.483Z,78.60
2017-11-09T22:09:46.954Z,77.60
2017-11-09T22:12:15.094Z,78.70
2017-11-09T22:14:43.923Z,79.60
2017-11-09T22:17:11.971Z,78.40
2017-11-09T22:19:40.055Z,78.00
2017-11-09T22:22:08.124Z,77.70
2017-11-09T22:24:36.176Z,78.20
2017-11-09T22:27:05.016Z,79.90
2017-11-09T22:29:33.070Z,80.50
2017-11-09T22:32:01.538Z,80.50
2017-11-09T22:34:30.732Z,81.10
2017-11-09T22:36:58.798Z,80.90
2017-11-09T22:39:26.863Z,80.90
2017-11-09T22:41:54.927Z,80.70
2017-11-09T22:44:23.394Z,81.20
2017-11-09T22:46:52.219Z,81.30
2017-11-09T22:49:20.294Z,81.10
2017-11-09T22:51:48.350Z,79.60
2017-11-09T22:54:17.185Z,81.00
2017-11-09T22:56:45.254Z,81.40
2017-11-09T22:59:13.331Z,81.70
2017-11-09T23:01:41.391Z,81.50
2017-11-09T23:04:09.471Z,81.60
2017-11-09T23:06:37.536Z,82.40
2017-11-09T23:09:06.741Z,83.50
2017-11-09T23:11:35.580Z,83.20
2017-11-09T23:14:04.426Z,83.50
2017-11-09T23:16:32.878Z,82.90
2017-11-09T23:21:31.409Z,81.80
2017-11-09T23:23:59.466Z,81.50
2017-11-09T23:26:27.543Z,82.20
2017-11-09T23:28:55.600Z,82.10
2017-11-09T23:31:23.659Z,82.60
2017-11-09T23:33:51.731Z,82.80
2017-11-09T23:36:19.812Z,82.00
2017-11-09T23:38:47.871Z,82.10
2017-11-09T23:41:15.932Z,83.00
2017-11-09T23:43:44.766Z,83.20
2017-11-09T23:46:12.838Z,83.20
2017-11-09T23:48:40.898Z,82.00
2017-11-09T23:51:08.975Z,82.50
2017-11-09T23:53:37.042Z,83.00
2017-11-09T23:56:05.099Z,82.00
2017-11-09T23:58:33.170Z,81.80
